sensor_id;sensor_type;location;lat;lon;timestamp;P1;durP1;ratioP1;P2;durP2;ratioP2
33022;SDS011;19390;51.460;5.710;2023-07-20T00:00:25;11.02;;;5.25;;
33022;SDS011;19390;51.460;5.710;2023-07-20T00:02:50;10.40;;;5.10;;
33022;SDS011;19390;51.460;5.710;2023-07-20T00:05:16;9.90;;;5.28;;
33022;SDS011;19390;51.460;5.710;2023-07-20T00:07:43;10.63;;;5.65;;
33022;SDS011;19390;51.460;5.710;2023-07-20T00:10:09;12.32;;;5.72;;
33022;SDS011;19390;51.460;5.710;2023-07-20T00:12:34;10.35;;;5.13;;
33022;SDS011;19390;51.460;5.710;2023-07-20T00:15:00;6.97;;;5.03;;
33022;SDS011;19390;51.460;5.710;2023-07-20T00:17:26;11.60;;;5.00;;
33022;SDS011;19390;51.460;5.710;2023-07-20T00:19:51;11.95;;;5.88;;
33022;SDS011;19390;51.460;5.710;2023-07-20T00:22:17;11.02;;;6.30;;
33022;SDS011;19390;51.460;5.710;2023-07-20T00:24:42;12.05;;;5.88;;
33022;SDS011;19390;51.460;5.710;2023-07-20T00:27:08;12.13;;;5.15;;
33022;SDS011;19390;51.460;5.710;2023-07-20T00:29:34;7.63;;;4.72;;
33022;SDS011;19390;51.460;5.710;2023-07-20T00:32:00;7.18;;;5.30;;
33022;SDS011;19390;51.460;5.710;2023-07-20T00:34:26;9.43;;;5.38;;
33022;SDS011;19390;51.460;5.710;2023-07-20T00:36:51;8.55;;;5.50;;
33022;SDS011;19390;51.460;5.710;2023-07-20T00:39:17;9.88;;;5.82;;
33022;SDS011;19390;51.460;5.710;2023-07-20T00:41:42;10.88;;;6.70;;
33022;SDS011;19390;51.460;5.710;2023-07-20T00:44:08;10.52;;;6.10;;
33022;SDS011;19390;51.460;5.710;2023-07-20T00:46:33;7.90;;;5.53;;
33022;SDS011;19390;51.460;5.710;2023-07-20T00:48:59;11.73;;;6.07;;
33022;SDS011;19390;51.460;5.710;2023-07-20T00:51:26;9.43;;;6.50;;
33022;SDS011;19390;51.460;5.710;2023-07-20T00:53:52;9.93;;;6.20;;
33022;SDS011;19390;51.460;5.710;2023-07-20T00:56:18;14.32;;;6.88;;
33022;SDS011;19390;51.460;5.710;2023-07-20T00:58:44;9.07;;;5.63;;
33022;SDS011;19390;51.460;5.710;2023-07-20T01:01:10;10.25;;;5.97;;
33022;SDS011;19390;51.460;5.710;2023-07-20T01:03:36;12.15;;;6.45;;
33022;SDS011;19390;51.460;5.710;2023-07-20T01:06:10;10.35;;;6.72;;
33022;SDS011;19390;51.460;5.710;2023-07-20T01:08:47;11.43;;;6.60;;
33022;SDS011;19390;51.460;5.710;2023-07-20T01:11:39;14.57;;;7.95;;
33022;SDS011;19390;51.460;5.710;2023-07-20T01:14:14;13.77;;;6.72;;
33022;SDS011;19390;51.460;5.710;2023-07-20T01:16:41;16.05;;;7.63;;
33022;SDS011;19390;51.460;5.710;2023-07-20T01:19:07;13.45;;;7.32;;
33022;SDS011;19390;51.460;5.710;2023-07-20T01:32:17;10.88;;;6.68;;
33022;SDS011;19390;51.460;5.710;2023-07-20T01:34:46;11.90;;;7.35;;
33022;SDS011;19390;51.460;5.710;2023-07-20T01:37:13;12.52;;;6.78;;
33022;SDS011;19390;51.460;5.710;2023-07-20T01:39:42;14.90;;;8.07;;
33022;SDS011;19390;51.460;5.710;2023-07-20T01:42:07;11.50;;;6.75;;
33022;SDS011;19390;51.460;5.710;2023-07-20T01:44:33;15.88;;;7.63;;
33022;SDS011;19390;51.460;5.710;2023-07-20T01:46:59;16.17;;;8.73;;
33022;SDS011;19390;51.460;5.710;2023-07-20T01:49:24;11.98;;;7.70;;
33022;SDS011;19390;51.460;5.710;2023-07-20T01:51:50;12.80;;;8.18;;
33022;SDS011;19390;51.460;5.710;2023-07-20T01:54:15;14.88;;;7.63;;
33022;SDS011;19390;51.460;5.710;2023-07-20T01:56:41;14.48;;;7.85;;
33022;SDS011;19390;51.460;5.710;2023-07-20T01:59:07;14.98;;;7.65;;
33022;SDS011;19390;51.460;5.710;2023-07-20T02:01:32;10.85;;;7.63;;
33022;SDS011;19390;51.460;5.710;2023-07-20T02:03:59;10.52;;;7.32;;
33022;SDS011;19390;51.460;5.710;2023-07-20T02:06:24;12.43;;;7.05;;
33022;SDS011;19390;51.460;5.710;2023-07-20T02:08:50;13.82;;;8.02;;
33022;SDS011;19390;51.460;5.710;2023-07-20T02:11:15;16.45;;;8.38;;
33022;SDS011;19390;51.460;5.710;2023-07-20T02:13:41;10.82;;;7.13;;
33022;SDS011;19390;51.460;5.710;2023-07-20T02:16:06;15.02;;;8.80;;
33022;SDS011;19390;51.460;5.710;2023-07-20T02:18:32;12.23;;;7.57;;
33022;SDS011;19390;51.460;5.710;2023-07-20T02:20:58;12.73;;;7.45;;
33022;SDS011;19390;51.460;5.710;2023-07-20T02:23:24;11.95;;;7.63;;
33022;SDS011;19390;51.460;5.710;2023-07-20T02:25:49;15.10;;;8.27;;
33022;SDS011;19390;51.460;5.710;2023-07-20T02:28:15;16.98;;;8.52;;
33022;SDS011;19390;51.460;5.710;2023-07-20T02:30:41;11.60;;;8.10;;
33022;SDS011;19390;51.460;5.710;2023-07-20T02:33:06;14.07;;;8.43;;
33022;SDS011;19390;51.460;5.710;2023-07-20T02:35:32;12.38;;;8.13;;
33022;SDS011;19390;51.460;5.710;2023-07-20T02:37:58;14.52;;;8.85;;
33022;SDS011;19390;51.460;5.710;2023-07-20T02:40:23;12.85;;;8.10;;
33022;SDS011;19390;51.460;5.710;2023-07-20T02:42:49;14.73;;;8.90;;
33022;SDS011;19390;51.460;5.710;2023-07-20T02:45:14;16.02;;;10.15;;
33022;SDS011;19390;51.460;5.710;2023-07-20T02:47:41;20.10;;;11.43;;
33022;SDS011;19390;51.460;5.710;2023-07-20T02:50:07;21.50;;;12.32;;
33022;SDS011;19390;51.460;5.710;2023-07-20T02:52:33;17.90;;;12.07;;
33022;SDS011;19390;51.460;5.710;2023-07-20T02:54:59;25.05;;;14.88;;
33022;SDS011;19390;51.460;5.710;2023-07-20T02:57:24;20.08;;;15.60;;
33022;SDS011;19390;51.460;5.710;2023-07-20T02:59:50;19.48;;;15.07;;
33022;SDS011;19390;51.460;5.710;2023-07-20T03:02:16;22.00;;;16.10;;
33022;SDS011;19390;51.460;5.710;2023-07-20T03:04:41;23.20;;;15.35;;
33022;SDS011;19390;51.460;5.710;2023-07-20T03:07:07;19.85;;;15.13;;
33022;SDS011;19390;51.460;5.710;2023-07-20T03:09:33;23.23;;;17.10;;
33022;SDS011;19390;51.460;5.710;2023-07-20T03:11:59;21.85;;;15.50;;
33022;SDS011;19390;51.460;5.710;2023-07-20T03:14:24;21.38;;;15.20;;
33022;SDS011;19390;51.460;5.710;2023-07-20T03:16:50;22.23;;;15.65;;
33022;SDS011;19390;51.460;5.710;2023-07-20T03:19:15;19.88;;;15.70;;
33022;SDS011;19390;51.460;5.710;2023-07-20T03:21:41;19.95;;;16.08;;
33022;SDS011;19390;51.460;5.710;2023-07-20T03:24:07;19.27;;;14.02;;
33022;SDS011;19390;51.460;5.710;2023-07-20T03:26:34;19.73;;;15.02;;
33022;SDS011;19390;51.460;5.710;2023-07-20T03:29:00;18.23;;;14.02;;
33022;SDS011;19390;51.460;5.710;2023-07-20T03:31:25;23.83;;;14.73;;
33022;SDS011;19390;51.460;5.710;2023-07-20T03:33:51;21.17;;;15.20;;
33022;SDS011;19390;51.460;5.710;2023-07-20T03:36:17;18.95;;;14.88;;
33022;SDS011;19390;51.460;5.710;2023-07-20T03:38:43;21.45;;;15.73;;
33022;SDS011;19390;51.460;5.710;2023-07-20T03:41:08;19.23;;;14.77;;
33022;SDS011;19390;51.460;5.710;2023-07-20T03:43:34;22.60;;;15.38;;
33022;SDS011;19390;51.460;5.710;2023-07-20T03:46:00;19.35;;;13.85;;
33022;SDS011;19390;51.460;5.710;2023-07-20T03:48:25;17.50;;;14.02;;
33022;SDS011;19390;51.460;5.710;2023-07-20T03:50:52;19.42;;;13.55;;
33022;SDS011;19390;51.460;5.710;2023-07-20T03:53:18;21.10;;;14.88;;
33022;SDS011;19390;51.460;5.710;2023-07-20T03:55:47;17.17;;;13.15;;
33022;SDS011;19390;51.460;5.710;2023-07-20T03:58:14;16.63;;;13.57;;
33022;SDS011;19390;51.460;5.710;2023-07-20T04:00:40;16.52;;;12.82;;
33022;SDS011;19390;51.460;5.710;2023-07-20T04:03:09;16.27;;;11.50;;
33022;SDS011;19390;51.460;5.710;2023-07-20T04:05:35;14.93;;;11.50;;
33022;SDS011;19390;51.460;5.710;2023-07-20T04:08:00;13.30;;;11.20;;
33022;SDS011;19390;51.460;5.710;2023-07-20T04:10:26;15.02;;;11.32;;
33022;SDS011;19390;51.460;5.710;2023-07-20T04:12:52;14.05;;;11.57;;
33022;SDS011;19390;51.460;5.710;2023-07-20T04:15:17;15.30;;;11.38;;
33022;SDS011;19390;51.460;5.710;2023-07-20T04:17:44;17.88;;;11.32;;
33022;SDS011;19390;51.460;5.710;2023-07-20T04:20:10;17.00;;;12.48;;
33022;SDS011;19390;51.460;5.710;2023-07-20T04:22:35;13.07;;;10.98;;
33022;SDS011;19390;51.460;5.710;2023-07-20T04:25:01;13.75;;;11.32;;
33022;SDS011;19390;51.460;5.710;2023-07-20T04:27:28;14.52;;;11.48;;
33022;SDS011;19390;51.460;5.710;2023-07-20T04:29:53;13.95;;;11.35;;
33022;SDS011;19390;51.460;5.710;2023-07-20T04:32:19;11.88;;;10.65;;
33022;SDS011;19390;51.460;5.710;2023-07-20T04:34:44;14.80;;;12.30;;
33022;SDS011;19390;51.460;5.710;2023-07-20T04:37:10;14.90;;;12.50;;
33022;SDS011;19390;51.460;5.710;2023-07-20T04:39:35;15.18;;;11.45;;
33022;SDS011;19390;51.460;5.710;2023-07-20T04:42:01;14.35;;;11.15;;
33022;SDS011;19390;51.460;5.710;2023-07-20T04:44:26;14.18;;;11.50;;
33022;SDS011;19390;51.460;5.710;2023-07-20T04:46:52;13.25;;;11.25;;
33022;SDS011;19390;51.460;5.710;2023-07-20T04:49:17;14.00;;;12.02;;
33022;SDS011;19390;51.460;5.710;2023-07-20T04:51:43;15.35;;;12.25;;
33022;SDS011;19390;51.460;5.710;2023-07-20T04:54:10;16.33;;;12.85;;
33022;SDS011;19390;51.460;5.710;2023-07-20T04:56:35;14.43;;;11.70;;
33022;SDS011;19390;51.460;5.710;2023-07-20T04:59:01;14.40;;;11.75;;
33022;SDS011;19390;51.460;5.710;2023-07-20T05:01:26;12.98;;;11.38;;
33022;SDS011;19390;51.460;5.710;2023-07-20T05:03:52;16.05;;;11.95;;
33022;SDS011;19390;51.460;5.710;2023-07-20T05:06:18;11.93;;;10.38;;
33022;SDS011;19390;51.460;5.710;2023-07-20T05:08:44;11.38;;;9.82;;
33022;SDS011;19390;51.460;5.710;2023-07-20T05:11:10;11.52;;;9.50;;
33022;SDS011;19390;51.460;5.710;2023-07-20T05:13:36;13.13;;;9.50;;
33022;SDS011;19390;51.460;5.710;2023-07-20T05:16:01;9.95;;;8.10;;
33022;SDS011;19390;51.460;5.710;2023-07-20T05:18:27;9.48;;;7.30;;
33022;SDS011;19390;51.460;5.710;2023-07-20T05:20:53;6.75;;;6.05;;
33022;SDS011;19390;51.460;5.710;2023-07-20T05:23:20;10.27;;;7.20;;
33022;SDS011;19390;51.460;5.710;2023-07-20T05:25:46;7.30;;;6.22;;
33022;SDS011;19390;51.460;5.710;2023-07-20T05:28:11;10.63;;;6.38;;
33022;SDS011;19390;51.460;5.710;2023-07-20T05:30:37;6.85;;;5.55;;
33022;SDS011;19390;51.460;5.710;2023-07-20T05:33:03;5.10;;;4.47;;
33022;SDS011;19390;51.460;5.710;2023-07-20T05:35:28;6.30;;;4.63;;
33022;SDS011;19390;51.460;5.710;2023-07-20T05:37:54;5.10;;;4.05;;
33022;SDS011;19390;51.460;5.710;2023-07-20T05:40:20;3.85;;;3.47;;
33022;SDS011;19390;51.460;5.710;2023-07-20T05:42:46;4.32;;;3.50;;
33022;SDS011;19390;51.460;5.710;2023-07-20T05:45:14;4.43;;;2.97;;
33022;SDS011;19390;51.460;5.710;2023-07-20T05:47:41;3.85;;;2.75;;
33022;SDS011;19390;51.460;5.710;2023-07-20T05:50:07;4.07;;;2.85;;
33022;SDS011;19390;51.460;5.710;2023-07-20T05:52:32;5.40;;;2.92;;
33022;SDS011;19390;51.460;5.710;2023-07-20T05:54:58;2.70;;;2.10;;
33022;SDS011;19390;51.460;5.710;2023-07-20T05:57:24;2.45;;;2.20;;
33022;SDS011;19390;51.460;5.710;2023-07-20T05:59:49;3.05;;;2.58;;
33022;SDS011;19390;51.460;5.710;2023-07-20T06:02:15;2.95;;;2.67;;
33022;SDS011;19390;51.460;5.710;2023-07-20T06:04:41;2.97;;;2.25;;
33022;SDS011;19390;51.460;5.710;2023-07-20T06:07:07;2.80;;;2.53;;
33022;SDS011;19390;51.460;5.710;2023-07-20T06:09:33;4.32;;;2.50;;
33022;SDS011;19390;51.460;5.710;2023-07-20T06:11:58;3.15;;;2.85;;
33022;SDS011;19390;51.460;5.710;2023-07-20T06:14:24;3.38;;;2.88;;
33022;SDS011;19390;51.460;5.710;2023-07-20T06:16:49;4.03;;;2.47;;
33022;SDS011;19390;51.460;5.710;2023-07-20T06:19:15;3.92;;;2.28;;
33022;SDS011;19390;51.460;5.710;2023-07-20T06:21:41;2.70;;;2.50;;
33022;SDS011;19390;51.460;5.710;2023-07-20T06:24:07;3.60;;;2.78;;
33022;SDS011;19390;51.460;5.710;2023-07-20T06:26:32;2.97;;;2.67;;
33022;SDS011;19390;51.460;5.710;2023-07-20T06:29:03;2.58;;;2.33;;
33022;SDS011;19390;51.460;5.710;2023-07-20T06:31:31;3.35;;;2.67;;
33022;SDS011;19390;51.460;5.710;2023-07-20T06:33:57;3.65;;;3.35;;
33022;SDS011;19390;51.460;5.710;2023-07-20T06:36:22;3.20;;;2.90;;
33022;SDS011;19390;51.460;5.710;2023-07-20T06:38:48;4.00;;;3.60;;
33022;SDS011;19390;51.460;5.710;2023-07-20T06:41:13;4.20;;;3.50;;
33022;SDS011;19390;51.460;5.710;2023-07-20T06:43:39;3.95;;;3.65;;
33022;SDS011;19390;51.460;5.710;2023-07-20T06:46:04;4.82;;;3.95;;
33022;SDS011;19390;51.460;5.710;2023-07-20T06:48:30;4.82;;;3.60;;
33022;SDS011;19390;51.460;5.710;2023-07-20T06:50:56;3.55;;;3.25;;
33022;SDS011;19390;51.460;5.710;2023-07-20T06:53:21;5.05;;;3.75;;
33022;SDS011;19390;51.460;5.710;2023-07-20T06:55:47;4.65;;;3.22;;
33022;SDS011;19390;51.460;5.710;2023-07-20T06:58:13;4.03;;;3.20;;
33022;SDS011;19390;51.460;5.710;2023-07-20T07:00:38;4.68;;;3.45;;
33022;SDS011;19390;51.460;5.710;2023-07-20T07:03:04;3.55;;;2.85;;
33022;SDS011;19390;51.460;5.710;2023-07-20T07:05:30;2.35;;;1.42;;
33022;SDS011;19390;51.460;5.710;2023-07-20T07:07:55;1.65;;;1.20;;
33022;SDS011;19390;51.460;5.710;2023-07-20T07:10:21;2.70;;;1.17;;
33022;SDS011;19390;51.460;5.710;2023-07-20T07:12:47;2.05;;;1.40;;
33022;SDS011;19390;51.460;5.710;2023-07-20T07:15:12;2.42;;;1.40;;
33022;SDS011;19390;51.460;5.710;2023-07-20T07:17:38;1.73;;;1.50;;
33022;SDS011;19390;51.460;5.710;2023-07-20T07:20:04;2.33;;;1.50;;
33022;SDS011;19390;51.460;5.710;2023-07-20T07:22:30;2.70;;;1.55;;
33022;SDS011;19390;51.460;5.710;2023-07-20T07:24:56;2.13;;;1.83;;
33022;SDS011;19390;51.460;5.710;2023-07-20T07:27:21;1.88;;;1.63;;
33022;SDS011;19390;51.460;5.710;2023-07-20T07:29:47;2.25;;;1.50;;
33022;SDS011;19390;51.460;5.710;2023-07-20T07:32:13;1.77;;;1.15;;
33022;SDS011;19390;51.460;5.710;2023-07-20T07:34:38;2.80;;;1.40;;
33022;SDS011;19390;51.460;5.710;2023-07-20T07:37:04;2.92;;;1.50;;
33022;SDS011;19390;51.460;5.710;2023-07-20T07:39:30;1.98;;;1.05;;
33022;SDS011;19390;51.460;5.710;2023-07-20T07:41:56;2.50;;;1.40;;
33022;SDS011;19390;51.460;5.710;2023-07-20T07:44:22;1.35;;;0.98;;
33022;SDS011;19390;51.460;5.710;2023-07-20T07:46:48;3.03;;;1.40;;
33022;SDS011;19390;51.460;5.710;2023-07-20T07:49:14;3.10;;;1.55;;
33022;SDS011;19390;51.460;5.710;2023-07-20T07:51:40;2.25;;;1.67;;
33022;SDS011;19390;51.460;5.710;2023-07-20T07:54:05;2.28;;;1.60;;
33022;SDS011;19390;51.460;5.710;2023-07-20T07:56:31;4.55;;;1.95;;
33022;SDS011;19390;51.460;5.710;2023-07-20T07:58:57;2.17;;;1.40;;
33022;SDS011;19390;51.460;5.710;2023-07-20T08:01:22;1.10;;;1.00;;
33022;SDS011;19390;51.460;5.710;2023-07-20T08:03:48;1.60;;;1.10;;
33022;SDS011;19390;51.460;5.710;2023-07-20T08:06:14;1.98;;;1.27;;
33022;SDS011;19390;51.460;5.710;2023-07-20T08:08:39;2.50;;;2.05;;
33022;SDS011;19390;51.460;5.710;2023-07-20T08:11:05;3.50;;;2.22;;
33022;SDS011;19390;51.460;5.710;2023-07-20T08:13:31;3.60;;;2.10;;
33022;SDS011;19390;51.460;5.710;2023-07-20T08:15:57;3.50;;;2.15;;
33022;SDS011;19390;51.460;5.710;2023-07-20T08:18:23;3.33;;;2.40;;
33022;SDS011;19390;51.460;5.710;2023-07-20T08:20:49;1.55;;;1.42;;
33022;SDS011;19390;51.460;5.710;2023-07-20T08:23:15;4.13;;;1.17;;
33022;SDS011;19390;51.460;5.710;2023-07-20T08:25:40;1.50;;;1.40;;
33022;SDS011;19390;51.460;5.710;2023-07-20T08:28:15;2.08;;;0.93;;
33022;SDS011;19390;51.460;5.710;2023-07-20T08:30:46;1.35;;;1.15;;
33022;SDS011;19390;51.460;5.710;2023-07-20T08:33:13;3.13;;;1.15;;
33022;SDS011;19390;51.460;5.710;2023-07-20T08:35:39;1.02;;;0.80;;
33022;SDS011;19390;51.460;5.710;2023-07-20T08:38:05;0.80;;;0.80;;
33022;SDS011;19390;51.460;5.710;2023-07-20T08:40:38;1.52;;;0.80;;
33022;SDS011;19390;51.460;5.710;2023-07-20T08:43:05;1.30;;;0.75;;
33022;SDS011;19390;51.460;5.710;2023-07-20T08:45:32;2.20;;;0.52;;
33022;SDS011;19390;51.460;5.710;2023-07-20T08:47:59;1.23;;;0.90;;
33022;SDS011;19390;51.460;5.710;2023-07-20T08:50:27;2.10;;;1.00;;
33022;SDS011;19390;51.460;5.710;2023-07-20T08:52:55;2.35;;;1.13;;
33022;SDS011;19390;51.460;5.710;2023-07-20T08:55:23;1.85;;;1.23;;
33022;SDS011;19390;51.460;5.710;2023-07-20T08:57:50;1.75;;;1.40;;
33022;SDS011;19390;51.460;5.710;2023-07-20T09:00:19;2.22;;;1.25;;
33022;SDS011;19390;51.460;5.710;2023-07-20T09:02:45;1.45;;;1.13;;
33022;SDS011;19390;51.460;5.710;2023-07-20T09:05:12;7.38;;;1.55;;
33022;SDS011;19390;51.460;5.710;2023-07-20T09:07:39;7.20;;;1.50;;
33022;SDS011;19390;51.460;5.710;2023-07-20T09:10:06;1.52;;;1.20;;
33022;SDS011;19390;51.460;5.710;2023-07-20T09:12:35;4.78;;;1.10;;
33022;SDS011;19390;51.460;5.710;2023-07-20T09:15:02;3.38;;;1.05;;
33022;SDS011;19390;51.460;5.710;2023-07-20T09:17:28;2.70;;;1.00;;
33022;SDS011;19390;51.460;5.710;2023-07-20T09:19:53;3.58;;;1.20;;
33022;SDS011;19390;51.460;5.710;2023-07-20T09:22:19;2.30;;;1.10;;
33022;SDS011;19390;51.460;5.710;2023-07-20T09:24:45;2.45;;;1.30;;
33022;SDS011;19390;51.460;5.710;2023-07-20T09:27:10;2.58;;;1.17;;
33022;SDS011;19390;51.460;5.710;2023-07-20T09:29:50;3.17;;;1.10;;
33022;SDS011;19390;51.460;5.710;2023-07-20T09:32:19;3.80;;;1.00;;
33022;SDS011;19390;51.460;5.710;2023-07-20T09:34:46;1.33;;;0.90;;
33022;SDS011;19390;51.460;5.710;2023-07-20T09:37:12;1.05;;;0.88;;
33022;SDS011;19390;51.460;5.710;2023-07-20T09:39:47;2.92;;;0.80;;
33022;SDS011;19390;51.460;5.710;2023-07-20T09:42:14;2.20;;;0.75;;
33022;SDS011;19390;51.460;5.710;2023-07-20T09:44:40;3.42;;;0.80;;
33022;SDS011;19390;51.460;5.710;2023-07-20T09:47:08;1.20;;;0.70;;
33022;SDS011;19390;51.460;5.710;2023-07-20T09:49:40;2.35;;;0.73;;
33022;SDS011;19390;51.460;5.710;2023-07-20T09:54:33;1.45;;;0.82;;
33022;SDS011;19390;51.460;5.710;2023-07-20T09:56:59;0.73;;;0.40;;
33022;SDS011;19390;51.460;5.710;2023-07-20T09:59:27;1.15;;;0.90;;
33022;SDS011;19390;51.460;5.710;2023-07-20T10:01:53;1.17;;;0.73;;
33022;SDS011;19390;51.460;5.710;2023-07-20T10:04:22;2.03;;;0.80;;
33022;SDS011;19390;51.460;5.710;2023-07-20T10:06:49;1.50;;;1.00;;
33022;SDS011;19390;51.460;5.710;2023-07-20T10:09:17;3.08;;;0.90;;
33022;SDS011;19390;51.460;5.710;2023-07-20T10:11:46;1.17;;;0.70;;
33022;SDS011;19390;51.460;5.710;2023-07-20T10:14:16;2.28;;;0.90;;
33022;SDS011;19390;51.460;5.710;2023-07-20T10:16:51;1.50;;;0.68;;
33022;SDS011;19390;51.460;5.710;2023-07-20T10:19:23;1.83;;;0.60;;
33022;SDS011;19390;51.460;5.710;2023-07-20T10:21:57;2.13;;;0.75;;
33022;SDS011;19390;51.460;5.710;2023-07-20T10:24:27;2.92;;;0.85;;
33022;SDS011;19390;51.460;5.710;2023-07-20T10:26:53;1.67;;;0.90;;
33022;SDS011;19390;51.460;5.710;2023-07-20T10:29:20;1.77;;;0.60;;
33022;SDS011;19390;51.460;5.710;2023-07-20T10:31:46;2.30;;;0.98;;
33022;SDS011;19390;51.460;5.710;2023-07-20T10:34:13;0.93;;;0.70;;
33022;SDS011;19390;51.460;5.710;2023-07-20T10:36:45;2.97;;;0.82;;
33022;SDS011;19390;51.460;5.710;2023-07-20T10:39:23;2.03;;;0.82;;
33022;SDS011;19390;51.460;5.710;2023-07-20T10:41:59;1.35;;;0.57;;
33022;SDS011;19390;51.460;5.710;2023-07-20T10:44:27;1.77;;;0.50;;
33022;SDS011;19390;51.460;5.710;2023-07-20T10:46:52;1.20;;;0.60;;
33022;SDS011;19390;51.460;5.710;2023-07-20T10:49:27;2.67;;;0.50;;
33022;SDS011;19390;51.460;5.710;2023-07-20T10:51:57;0.82;;;0.60;;
33022;SDS011;19390;51.460;5.710;2023-07-20T10:56:54;1.75;;;0.40;;
33022;SDS011;19390;51.460;5.710;2023-07-20T11:01:50;2.20;;;0.43;;
33022;SDS011;19390;51.460;5.710;2023-07-20T11:04:21;0.82;;;0.38;;
33022;SDS011;19390;51.460;5.710;2023-07-20T11:07:03;0.93;;;0.55;;
33022;SDS011;19390;51.460;5.710;2023-07-20T11:09:33;1.23;;;0.50;;
33022;SDS011;19390;51.460;5.710;2023-07-20T11:12:13;0.82;;;0.40;;
33022;SDS011;19390;51.460;5.710;2023-07-20T11:14:43;0.50;;;0.40;;
33022;SDS011;19390;51.460;5.710;2023-07-20T11:17:19;1.30;;;0.50;;
33022;SDS011;19390;51.460;5.710;2023-07-20T11:19:50;1.13;;;0.70;;
33022;SDS011;19390;51.460;5.710;2023-07-20T11:22:20;1.60;;;0.57;;
33022;SDS011;19390;51.460;5.710;2023-07-20T11:24:46;1.05;;;0.57;;
33022;SDS011;19390;51.460;5.710;2023-07-20T11:27:14;2.70;;;0.70;;
33022;SDS011;19390;51.460;5.710;2023-07-20T11:29:40;1.17;;;0.50;;
33022;SDS011;19390;51.460;5.710;2023-07-20T11:32:05;0.82;;;0.55;;
33022;SDS011;19390;51.460;5.710;2023-07-20T11:34:32;1.00;;;0.40;;
33022;SDS011;19390;51.460;5.710;2023-07-20T11:36:58;2.67;;;0.60;;
33022;SDS011;19390;51.460;5.710;2023-07-20T11:39:24;1.00;;;0.20;;
33022;SDS011;19390;51.460;5.710;2023-07-20T11:41:51;2.40;;;0.47;;
33022;SDS011;19390;51.460;5.710;2023-07-20T11:44:23;1.33;;;0.52;;
33022;SDS011;19390;51.460;5.710;2023-07-20T11:47:05;0.65;;;0.50;;
33022;SDS011;19390;51.460;5.710;2023-07-20T11:49:42;2.33;;;0.63;;
33022;SDS011;19390;51.460;5.710;2023-07-20T11:52:13;0.88;;;0.63;;
33022;SDS011;19390;51.460;5.710;2023-07-20T11:54:40;1.30;;;0.70;;
33022;SDS011;19390;51.460;5.710;2023-07-20T11:57:06;0.82;;;0.65;;
33022;SDS011;19390;51.460;5.710;2023-07-20T11:59:32;0.88;;;0.60;;
33022;SDS011;19390;51.460;5.710;2023-07-20T12:02:00;2.72;;;0.70;;
33022;SDS011;19390;51.460;5.710;2023-07-20T12:04:27;3.10;;;0.30;;
33022;SDS011;19390;51.460;5.710;2023-07-20T12:06:53;2.97;;;0.52;;
33022;SDS011;19390;51.460;5.710;2023-07-20T12:09:20;2.17;;;0.50;;
33022;SDS011;19390;51.460;5.710;2023-07-20T12:11:48;1.00;;;0.50;;
33022;SDS011;19390;51.460;5.710;2023-07-20T12:14:14;0.52;;;0.40;;
33022;SDS011;19390;51.460;5.710;2023-07-20T12:16:40;1.35;;;0.65;;
33022;SDS011;19390;51.460;5.710;2023-07-20T12:19:10;1.25;;;0.63;;
33022;SDS011;19390;51.460;5.710;2023-07-20T12:21:39;1.38;;;0.75;;
33022;SDS011;19390;51.460;5.710;2023-07-20T12:24:06;2.80;;;0.70;;
33022;SDS011;19390;51.460;5.710;2023-07-20T12:26:34;0.93;;;0.30;;
33022;SDS011;19390;51.460;5.710;2023-07-20T12:28:59;1.02;;;0.40;;
33022;SDS011;19390;51.460;5.710;2023-07-20T12:31:26;1.17;;;0.50;;
33022;SDS011;19390;51.460;5.710;2023-07-20T12:33:53;2.17;;;0.70;;
33022;SDS011;19390;51.460;5.710;2023-07-20T12:36:22;2.92;;;0.65;;
33022;SDS011;19390;51.460;5.710;2023-07-20T12:38:48;0.93;;;0.60;;
33022;SDS011;19390;51.460;5.710;2023-07-20T12:41:13;1.67;;;0.60;;
33022;SDS011;19390;51.460;5.710;2023-07-20T12:43:42;1.35;;;0.70;;
33022;SDS011;19390;51.460;5.710;2023-07-20T12:46:11;0.60;;;0.60;;
33022;SDS011;19390;51.460;5.710;2023-07-20T12:48:38;3.05;;;0.88;;
33022;SDS011;19390;51.460;5.710;2023-07-20T12:51:07;1.27;;;0.57;;
33022;SDS011;19390;51.460;5.710;2023-07-20T12:53:34;1.77;;;0.75;;
33022;SDS011;19390;51.460;5.710;2023-07-20T12:56:00;1.70;;;0.75;;
33022;SDS011;19390;51.460;5.710;2023-07-20T12:58:25;1.10;;;0.68;;
33022;SDS011;19390;51.460;5.710;2023-07-20T13:00:51;2.72;;;0.90;;
33022;SDS011;19390;51.460;5.710;2023-07-20T13:03:17;1.20;;;0.60;;
33022;SDS011;19390;51.460;5.710;2023-07-20T13:05:44;1.50;;;0.47;;
33022;SDS011;19390;51.460;5.710;2023-07-20T13:08:10;0.95;;;0.60;;
33022;SDS011;19390;51.460;5.710;2023-07-20T13:10:36;0.80;;;0.50;;
33022;SDS011;19390;51.460;5.710;2023-07-20T13:13:03;1.02;;;0.50;;
33022;SDS011;19390;51.460;5.710;2023-07-20T13:15:29;2.97;;;0.70;;
33022;SDS011;19390;51.460;5.710;2023-07-20T13:18:05;0.57;;;0.45;;
33022;SDS011;19390;51.460;5.710;2023-07-20T13:20:31;1.58;;;0.68;;
33022;SDS011;19390;51.460;5.710;2023-07-20T13:22:57;1.40;;;0.50;;
33022;SDS011;19390;51.460;5.710;2023-07-20T13:25:22;1.50;;;0.55;;
33022;SDS011;19390;51.460;5.710;2023-07-20T13:27:49;3.67;;;0.73;;
33022;SDS011;19390;51.460;5.710;2023-07-20T13:30:14;1.90;;;1.00;;
33022;SDS011;19390;51.460;5.710;2023-07-20T13:32:44;1.40;;;0.63;;
33022;SDS011;19390;51.460;5.710;2023-07-20T13:35:10;2.45;;;0.60;;
33022;SDS011;19390;51.460;5.710;2023-07-20T13:37:37;1.88;;;0.60;;
33022;SDS011;19390;51.460;5.710;2023-07-20T13:40:02;2.13;;;0.75;;
33022;SDS011;19390;51.460;5.710;2023-07-20T13:42:30;1.48;;;0.80;;
33022;SDS011;19390;51.460;5.710;2023-07-20T13:44:56;2.78;;;0.75;;
33022;SDS011;19390;51.460;5.710;2023-07-20T13:47:22;1.25;;;0.60;;
33022;SDS011;19390;51.460;5.710;2023-07-20T13:49:47;1.25;;;0.60;;
33022;SDS011;19390;51.460;5.710;2023-07-20T13:52:13;0.63;;;0.50;;
33022;SDS011;19390;51.460;5.710;2023-07-20T13:54:39;1.67;;;0.52;;
33022;SDS011;19390;51.460;5.710;2023-07-20T13:57:05;0.43;;;0.40;;
33022;SDS011;19390;51.460;5.710;2023-07-20T13:59:31;3.13;;;0.85;;
33022;SDS011;19390;51.460;5.710;2023-07-20T14:01:56;0.98;;;0.70;;
33022;SDS011;19390;51.460;5.710;2023-07-20T14:04:22;2.38;;;0.47;;
33022;SDS011;19390;51.460;5.710;2023-07-20T14:06:47;1.13;;;0.60;;
33022;SDS011;19390;51.460;5.710;2023-07-20T14:09:13;1.00;;;0.70;;
33022;SDS011;19390;51.460;5.710;2023-07-20T14:11:39;1.00;;;0.70;;
33022;SDS011;19390;51.460;5.710;2023-07-20T14:14:04;0.90;;;0.60;;
33022;SDS011;19390;51.460;5.710;2023-07-20T14:16:30;2.08;;;0.50;;
33022;SDS011;19390;51.460;5.710;2023-07-20T14:18:57;3.25;;;0.80;;
33022;SDS011;19390;51.460;5.710;2023-07-20T14:21:23;2.40;;;0.40;;
33022;SDS011;19390;51.460;5.710;2023-07-20T14:23:49;1.77;;;0.60;;
33022;SDS011;19390;51.460;5.710;2023-07-20T14:26:16;0.90;;;0.70;;
33022;SDS011;19390;51.460;5.710;2023-07-20T14:28:42;2.08;;;0.63;;
33022;SDS011;19390;51.460;5.710;2023-07-20T14:31:07;3.28;;;0.70;;
33022;SDS011;19390;51.460;5.710;2023-07-20T14:33:33;2.72;;;0.82;;
33022;SDS011;19390;51.460;5.710;2023-07-20T14:35:59;1.85;;;0.70;;
33022;SDS011;19390;51.460;5.710;2023-07-20T14:38:26;1.75;;;0.77;;
33022;SDS011;19390;51.460;5.710;2023-07-20T14:43:24;1.10;;;0.70;;
33022;SDS011;19390;51.460;5.710;2023-07-20T14:45:50;2.25;;;1.15;;
33022;SDS011;19390;51.460;5.710;2023-07-20T14:48:16;1.25;;;0.70;;
33022;SDS011;19390;51.460;5.710;2023-07-20T14:50:42;2.10;;;0.77;;
33022;SDS011;19390;51.460;5.710;2023-07-20T14:53:10;0.95;;;0.68;;
33022;SDS011;19390;51.460;5.710;2023-07-20T14:55:36;3.50;;;0.90;;
33022;SDS011;19390;51.460;5.710;2023-07-20T14:58:02;4.85;;;1.15;;